Time;durP1;ratioP1;P1;durP2;ratioP2;P2;SDS_P1;SDS_P2;PMS_P1;PMS_P2;Temp;Humidity;BMP_temperature;BMP_pressure;BME280_temperature;BME280_humidity;BME280_pressure;Samples;Min_cycle;Max_cycle;Signal;HPM_P1;HPM_P2
2023/01/26 00:01:08;;;;;;;;;53.67;40.00;;;;;5.03;64.91;102119.00;5040270;28;45703;-69
2023/01/26 00:03:33;;;;;;;;;61.67;45.33;;;;;4.49;64.25;102029.38;5040846;28;45291;-67
2023/01/26 00:06:03;;;;;;;;;50.33;39.67;;;;;5.02;64.85;102104.97;5022544;28;45328;-67
2023/01/26 00:08:28;;;;;;;;;58.33;46.33;;;;;5.14;64.56;102112.25;5040659;28;45492;-69
2023/01/26 00:10:53;;;;;;;;;55.67;44.00;;;;;4.51;64.91;102019.63;5039975;28;45435;-69
2023/01/26 00:13:19;;;;;;;;;60.67;45.67;;;;;5.20;65.32;102124.28;5039841;28;47073;-71
2023/01/26 00:15:44;;;;;;;;;55.00;39.67;;;;;4.17;65.72;101940.53;5040167;28;45459;-70
2023/01/26 00:18:10;;;;;;;;;57.67;42.33;;;;;2.12;64.92;101605.03;5040310;28;45321;-68
2023/01/26 00:20:35;;;;;;;;;55.67;43.67;;;;;4.91;65.09;102036.09;5039801;28;46479;-68
2023/01/26 00:23:01;;;;;;;;;53.67;41.33;;;;;5.23;65.78;102083.75;5040586;28;45314;-68
2023/01/26 00:25:26;;;;;;;;;48.67;39.33;;;;;5.20;65.84;102076.81;5040293;28;45326;-69
2023/01/26 00:27:52;;;;;;;;;51.67;39.33;;;;;4.17;65.69;101895.78;5039858;28;45635;-69
2023/01/26 00:30:17;;;;;;;;;47.67;38.00;;;;;5.26;65.27;102076.53;5021784;28;46204;-70
2023/01/26 00:32:42;;;;;;;;;55.33;41.00;;;;;5.26;65.77;102073.91;5039988;28;45476;-69
2023/01/26 00:35:08;;;;;;;;;53.67;41.33;;;;;4.64;65.68;101958.44;5040026;28;45465;-68
2023/01/26 00:37:34;;;;;;;;;54.00;40.00;;;;;5.28;65.81;102087.00;5040126;28;45221;-69
2023/01/26 00:39:59;;;;;;;;;55.67;45.00;;;;;4.66;65.78;101961.84;5040037;28;45963;-68
2023/01/26 00:42:24;;;;;;;;;64.50;47.25;;;;;5.19;64.95;102061.94;5039626;28;45255;-70
2023/01/26 00:44:50;;;;;;;;;64.00;49.00;;;;;4.89;65.67;102001.94;5039724;28;45781;-70
2023/01/26 00:47:16;;;;;;;;;59.00;49.00;;;;;5.16;65.31;102047.13;5039721;28;45561;-69
2023/01/26 00:49:42;;;;;;;;;61.75;46.75;;;;;4.93;65.60;102022.84;5039440;28;47101;-68
2023/01/26 00:52:08;;;;;;;;;66.25;50.00;;;;;4.87;66.12;102000.31;5039473;28;45317;-69
2023/01/26 00:54:34;;;;;;;;;63.75;49.25;;;;;4.43;66.12;101920.88;5039536;28;45369;-69
2023/01/26 00:57:00;;;;;;;;;66.50;50.50;;;;;3.87;67.07;101849.00;5039949;28;45441;-68
2023/01/26 00:59:25;;;;;;;;;67.50;49.00;;;;;4.93;66.88;102028.97;5040294;28;45985;-70
2023/01/26 01:01:52;;;;;;;;;65.50;49.50;;;;;4.45;66.34;101950.59;5020748;28;45295;-68
2023/01/26 01:04:17;;;;;;;;;57.67;46.33;;;;;4.92;67.12;102053.63;5021299;28;45466;-68
2023/01/26 01:06:42;;;;;;;;;66.25;49.50;;;;;4.99;66.99;102035.72;5021337;28;45304;-68
2023/01/26 01:09:08;;;;;;;;;61.25;46.75;;;;;4.46;66.47;101950.53;5038957;28;46586;-69
2023/01/26 01:11:34;;;;;;;;;64.50;49.75;;;;;5.05;66.65;102028.38;5039153;28;45235;-69
2023/01/26 01:14:00;;;;;;;;;65.00;45.75;;;;;5.04;66.25;102031.94;5020981;28;45329;-69
2023/01/26 01:16:27;;;;;;;;;65.00;48.50;;;;;4.29;66.97;101911.00;5021354;28;45508;-70
2023/01/26 01:18:54;;;;;;;;;68.50;51.50;;;;;4.88;67.26;102000.22;5020741;28;46724;-69
2023/01/26 01:21:20;;;;;;;;;69.50;50.25;;;;;4.48;66.80;101939.91;5020887;28;45591;-68
2023/01/26 01:23:45;;;;;;;;;68.50;52.25;;;;;4.81;67.25;102014.66;5039084;28;45216;-67
2023/01/26 01:26:12;;;;;;;;;68.33;51.33;;;;;3.57;67.56;101832.03;5039088;28;45507;-67
2023/01/26 01:28:38;;;;;;;;;72.33;52.00;;;;;4.69;67.71;102017.88;5038402;28;45824;-69
2023/01/26 01:31:09;;;;;;;;;66.75;51.25;;;;;3.58;67.74;101815.34;5038553;28;45327;-67
2023/01/26 01:33:34;;;;;;;;;66.25;51.00;;;;;4.75;67.61;102017.56;5038816;28;46723;-69
2023/01/26 01:36:02;;;;;;;;;71.25;53.25;;;;;4.70;67.17;102001.13;5038632;28;45493;-68
2023/01/26 01:38:28;;;;;;;;;65.50;49.75;;;;;4.09;67.56;101906.72;5038365;28;45802;-68
2023/01/26 01:40:54;;;;;;;;;65.75;50.75;;;;;3.75;67.06;101849.59;5038616;28;45685;-68
2023/01/26 01:43:21;;;;;;;;;65.25;51.00;;;;;4.62;66.95;102008.56;5020783;28;45234;-68
2023/01/26 01:45:48;;;;;;;;;66.50;51.00;;;;;4.05;67.17;101923.56;5038737;28;45362;-67
2023/01/26 01:48:27;;;;;;;;;69.50;51.25;;;;;4.61;66.76;102000.75;5038328;28;45508;-68
2023/01/26 01:50:56;;;;;;;;;60.75;48.25;;;;;4.66;66.39;102032.97;5020531;28;45346;-67
2023/01/26 01:53:31;;;;;;;;;64.00;49.75;;;;;4.59;66.74;102009.53;5038549;28;45330;-68
2023/01/26 01:56:01;;;;;;;;;70.25;52.00;;;;;4.61;67.21;102011.28;5020603;28;45486;-68
2023/01/26 01:58:29;;;;;;;;;69.25;49.50;;;;;4.54;67.60;102003.66;5038386;28;45777;-69
2023/01/26 02:00:55;;;;;;;;;68.00;49.50;;;;;4.63;68.11;102017.31;5038324;28;45294;-68
2023/01/26 02:03:21;;;;;;;;;67.75;50.50;;;;;3.07;67.48;101758.22;5039029;28;45231;-68
2023/01/26 02:05:46;;;;;;;;;72.25;52.25;;;;;4.67;67.22;102009.19;5021099;28;45424;-68
2023/01/26 02:08:14;;;;;;;;;66.50;49.25;;;;;4.58;67.63;101997.31;5038053;28;45435;-69
2023/01/26 02:10:42;;;;;;;;;66.50;47.00;;;;;4.05;67.11;101901.66;5020208;28;45294;-70
2023/01/26 02:13:08;;;;;;;;;71.25;52.25;;;;;4.19;68.41;101938.69;5037189;28;45346;-67
2023/01/26 02:15:33;;;;;;;;;66.00;50.50;;;;;4.60;67.99;102010.41;5020279;28;45526;-68
2023/01/26 02:18:02;;;;;;;;;63.25;48.50;;;;;4.54;67.88;101998.38;5038078;28;46144;-68
2023/01/26 02:20:56;;;;;;;;;68.75;51.25;;;;;4.56;68.12;101999.16;5038077;28;45364;-69
2023/01/26 02:23:29;;;;;;;;;67.50;52.75;;;;;4.56;67.73;102003.59;5038107;28;45416;-70
2023/01/26 02:25:56;;;;;;;;;64.00;49.50;;;;;4.10;68.04;101912.81;5038131;28;45310;-68
2023/01/26 02:28:24;;;;;;;;;73.25;48.25;;;;;4.66;68.16;102004.00;5036952;28;47070;-70
2023/01/26 02:30:51;;;;;;;;;63.75;50.50;;;;;3.66;67.89;101821.09;5058070;28;45390;-68
2023/01/26 02:33:25;;;;;;;;;63.25;48.50;;;;;4.70;67.35;102003.78;5057922;28;45251;-71
2023/01/26 02:35:51;;;;;;;;;71.00;52.25;;;;;4.64;67.82;101997.97;5058107;28;45211;-68
2023/01/26 02:38:18;;;;;;;;;66.25;48.75;;;;;3.44;67.28;101781.00;5057382;28;46194;-67
2023/01/26 02:40:55;;;;;;;;;74.00;54.25;;;;;4.62;68.04;101997.19;5057802;28;45233;-68
2023/01/26 02:43:24;;;;;;;;;66.00;50.00;;;;;3.59;68.05;101815.25;5057847;28;45515;-68
2023/01/26 02:45:49;;;;;;;;;70.75;51.00;;;;;4.58;68.05;101978.03;5057868;28;45319;-69
2023/01/26 02:49:45;;;;;;;;;65.75;47.25;;;;;4.49;68.58;101986.38;5057385;28;45286;-69
2023/01/26 02:51:00;;;;;;;;;69.75;53.50;;;;;4.52;68.56;101987.09;5057512;28;45529;-67
2023/01/26 02:53:26;;;;;;;;;67.25;50.75;;;;;3.62;68.67;101824.81;5056284;28;45254;-68
2023/01/26 02:55:51;;;;;;;;;74.00;52.50;;;;;4.57;69.38;101978.94;5056559;28;45520;-68
2023/01/26 02:58:16;;;;;;;;;65.50;49.75;;;;;4.49;69.09;101981.97;5058446;28;46583;-69
2023/01/26 03:00:42;;;;;;;;;67.75;51.75;;;;;4.40;69.34;101981.53;5059769;28;45549;-68
2023/01/26 03:03:23;;;;;;;;;68.75;53.00;;;;;4.40;69.30;101969.22;5059276;28;45259;-67
2023/01/26 03:05:49;;;;;;;;;75.00;51.50;;;;;3.97;68.77;101905.50;5057940;28;45464;-69
2023/01/26 03:08:14;;;;;;;;;67.00;50.00;;;;;3.99;68.49;101887.00;5055907;28;47852;-68
2023/01/26 03:10:40;;;;;;;;;68.25;50.25;;;;;4.63;68.55;101983.09;5055862;28;45470;-68
2023/01/26 03:13:05;;;;;;;;;64.50;46.25;;;;;4.50;68.39;101973.16;5056293;28;45280;-69
2023/01/26 03:15:41;;;;;;;;;64.25;48.25;;;;;4.51;68.75;101974.00;5057595;28;45412;-69
2023/01/26 03:29:21;;;;;;;;;64.25;47.00;;;;;3.27;68.25;101751.09;5038200;28;45826;-69
2023/01/26 03:31:46;;;;;;;;;70.75;51.75;;;;;4.40;68.41;101931.53;5036794;28;45476;-69
2023/01/26 03:34:12;;;;;;;;;63.00;47.00;;;;;4.46;68.28;101932.09;5037216;28;45364;-69
2023/01/26 03:36:37;;;;;;;;;58.00;45.00;;;;;4.63;68.31;101967.28;5037239;28;45352;-68
2023/01/26 03:39:04;;;;;;;;;62.33;46.33;;;;;3.57;68.24;101780.31;5018746;28;46746;-69
2023/01/26 03:57:52;;;;;;;;;51.33;43.00;;;;;3.43;68.32;101748.59;5037362;28;45302;-70
2023/01/26 04:00:18;;;;;;;;;59.67;46.00;;;;;4.56;69.13;101935.97;5036287;28;45948;-69
2023/01/26 04:08:23;;;;;;;;;59.50;44.50;;;;;4.61;69.03;101945.44;5036590;28;45254;-69
2023/01/26 04:10:52;;;;;;;;;61.00;43.33;;;;;4.51;67.95;101930.06;5036394;28;45823;-67
2023/01/26 04:21:33;;;;;;;;;63.33;47.33;;;;;4.25;69.20;101875.22;5036368;28;45452;-67
2023/01/26 04:24:00;;;;;;;;;54.75;42.25;;;;;4.42;68.92;101896.31;5018388;28;45346;-68
2023/01/26 04:26:35;;;;;;;;;58.25;45.25;;;;;4.53;69.07;101936.13;5036465;28;45359;-67
2023/01/26 04:29:08;;;;;;;;;65.00;46.33;;;;;4.55;69.54;101923.72;5046228;28;45369;-69
2023/01/26 04:31:34;;;;;;;;;57.00;42.67;;;;;4.15;69.59;101871.34;5056394;28;46505;-69
2023/01/26 04:34:01;;;;;;;;;65.25;47.50;;;;;4.45;69.44;101926.91;5056137;28;45514;-69
2023/01/26 04:36:26;;;;;;;;;63.67;47.33;;;;;3.59;68.88;101777.59;5058502;28;45493;-68
2023/01/26 04:38:52;;;;;;;;;62.33;46.67;;;;;4.59;69.67;101933.16;5059960;28;45228;-70
2023/01/26 04:41:17;;;;;;;;;57.33;43.00;;;;;4.67;68.68;101947.75;5059536;28;45569;-69
2023/01/26 04:43:43;;;;;;;;;61.00;43.33;;;;;4.68;69.02;101933.66;5059618;28;45313;-70
2023/01/26 04:46:08;;;;;;;;;62.33;47.67;;;;;4.66;68.85;101936.38;5058401;28;45416;-70
2023/01/26 04:48:34;;;;;;;;;57.75;42.75;;;;;3.96;69.48;101850.31;5059821;28;45362;-69
2023/01/26 04:51:06;;;;;;;;;66.25;47.00;;;;;4.64;69.54;101942.66;5059296;28;46728;-69
2023/01/26 04:53:32;;;;;;;;;55.33;45.33;;;;;4.05;68.88;101828.00;5059007;28;45273;-70
2023/01/26 04:55:58;;;;;;;;;57.33;41.33;;;;;4.64;70.00;101943.50;5059433;28;45309;-70
2023/01/26 04:58:24;;;;;;;;;57.33;44.67;;;;;4.61;69.41;101927.00;5059610;28;45308;-67
2023/01/26 05:00:57;;;;;;;;;54.67;42.33;;;;;4.69;69.18;101946.75;5059051;28;45457;-69
2023/01/26 05:03:24;;;;;;;;;56.33;39.67;;;;;4.58;69.57;101914.81;5059286;28;45478;-67
2023/01/26 05:05:52;;;;;;;;;43.67;37.33;;;;;4.73;69.81;101942.16;5059151;28;45624;-68
2023/01/26 05:08:18;;;;;;;;;55.00;41.00;;;;;4.75;70.01;101945.56;5059056;28;45269;-68
2023/01/26 05:10:45;;;;;;;;;60.67;42.00;;;;;4.77;70.54;101928.75;5058991;28;46597;-68
2023/01/26 05:13:10;;;;;;;;;47.67;39.67;;;;;4.75;70.31;101932.41;5058868;28;45511;-68
2023/01/26 05:15:36;;;;;;;;;57.00;45.33;;;;;4.02;69.38;101791.31;5058941;28;45265;-70
2023/01/26 05:18:02;;;;;;;;;62.00;40.33;;;;;4.73;69.65;101926.38;5058007;28;45484;-70
2023/01/26 05:20:28;;;;;;;;;59.67;45.00;;;;;4.77;70.41;101933.19;5057730;28;48665;-69
2023/01/26 05:22:53;;;;;;;;;56.00;42.33;;;;;4.74;69.67;101928.91;5058890;28;45260;-71
2023/01/26 05:25:19;;;;;;;;;42.33;36.00;;;;;4.81;70.27;101932.97;5059955;28;45489;-69
2023/01/26 05:27:44;;;;;;;;;48.33;38.67;;;;;3.62;69.03;101732.78;5054366;28;45275;-69
2023/01/26 05:30:10;;;;;;;;;55.67;42.67;;;;;4.21;68.79;101834.22;5038325;28;45540;-68
2023/01/26 05:32:36;;;;;;;;;51.33;38.33;;;;;4.15;68.90;101831.84;5038382;28;45277;-69
2023/01/26 05:35:03;;;;;;;;;52.33;39.33;;;;;4.84;69.44;101929.31;5020547;28;45408;-68
2023/01/26 05:37:28;;;;;;;;;57.67;43.00;;;;;4.41;69.27;101873.56;5038706;28;45487;-68
2023/01/26 05:39:54;;;;;;;;;57.75;44.25;;;;;4.80;70.00;101938.28;5038360;28;46732;-71
2023/01/26 05:42:20;;;;;;;;;57.33;42.33;;;;;4.06;69.50;101804.22;5038691;28;45442;-68
2023/01/26 05:44:46;;;;;;;;;54.67;40.00;;;;;4.89;68.85;101938.69;5038914;28;45419;-67
2023/01/26 05:47:11;;;;;;;;;62.00;44.67;;;;;4.89;69.60;101943.09;5039302;28;45262;-70
2023/01/26 05:49:40;;;;;;;;;53.33;40.67;;;;;4.92;69.16;101931.56;5020236;28;48550;-69
2023/01/26 05:52:10;;;;;;;;;52.67;40.67;;;;;4.92;69.41;101934.19;5038865;28;45249;-68
2023/01/26 05:54:36;;;;;;;;;62.00;45.67;;;;;4.00;68.72;101774.72;5020490;28;45470;-69
2023/01/26 05:57:02;;;;;;;;;54.00;43.00;;;;;4.82;68.75;101912.75;5038199;28;45377;-69
2023/01/26 05:59:27;;;;;;;;;63.33;46.67;;;;;4.88;69.14;101936.13;5038293;28;45476;-68
2023/01/26 06:01:53;;;;;;;;;63.00;50.00;;;;;4.80;69.16;101938.28;5020083;28;45272;-68
2023/01/26 06:04:18;;;;;;;;;66.50;47.75;;;;;4.55;69.52;101892.13;5038394;28;45355;-71
2023/01/26 06:06:43;;;;;;;;;66.75;48.50;;;;;4.63;70.60;101935.69;5038371;28;45358;-69
2023/01/26 06:09:09;;;;;;;;;62.67;44.33;;;;;4.56;69.63;101929.84;5019642;28;48600;-71
2023/01/26 06:11:35;;;;;;;;;67.00;49.33;;;;;4.26;70.19;101882.19;5037993;28;45242;-69
2023/01/26 06:14:00;;;;;;;;;70.25;51.00;;;;;4.38;70.68;101922.84;5043716;28;45921;-70
2023/01/26 06:16:26;;;;;;;;;67.33;48.67;;;;;3.88;70.77;101820.91;5039418;28;45420;-70
2023/01/26 06:18:51;;;;;;;;;63.25;46.00;;;;;3.47;70.42;101749.28;5048299;28;45889;-68
2023/01/26 06:21:16;;;;;;;;;65.50;47.25;;;;;4.59;70.48;101935.81;5057867;28;45278;-69
2023/01/26 06:23:42;;;;;;;;;63.75;51.50;;;;;4.40;70.52;101919.22;5039741;28;45384;-69
2023/01/26 06:26:07;;;;;;;;;63.67;49.00;;;;;4.41;71.19;101918.31;5056269;28;45175;-72
2023/01/26 06:28:34;;;;;;;;;63.67;47.00;;;;;3.80;71.27;101817.78;5049439;28;46550;-71
2023/01/26 06:31:01;;;;;;;;;55.33;43.67;;;;;4.62;71.83;101940.09;5057745;28;45424;-71
2023/01/26 06:33:27;;;;;;;;;59.33;45.00;;;;;3.48;71.43;101743.09;5057663;28;45513;-71
2023/01/26 06:35:54;;;;;;;;;59.33;46.00;;;;;4.64;71.21;101926.84;5057787;28;45538;-69
2023/01/26 06:38:20;;;;;;;;;54.67;40.00;;;;;4.56;71.45;101924.56;5057571;28;46969;-69
2023/01/26 06:40:45;;;;;;;;;60.00;45.33;;;;;4.46;70.73;101905.75;5075157;27;45537;-69
2023/01/26 06:43:11;;;;;;;;;61.67;45.33;;;;;4.70;71.14;101924.75;5076108;27;45311;-70
2023/01/26 06:45:36;;;;;;;;;58.00;43.00;;;;;4.76;71.50;101929.69;5078281;27;45526;-70
2023/01/26 06:48:01;;;;;;;;;63.00;43.67;;;;;4.83;70.34;101935.53;5077567;27;45488;-70
2023/01/26 06:50:31;;;;;;;;;58.67;43.00;;;;;3.68;70.51;101740.34;5075992;27;45953;-69
2023/01/26 06:52:59;;;;;;;;;57.67;45.00;;;;;4.87;71.12;101934.44;5078433;28;45339;-69
2023/01/26 06:55:36;;;;;;;;;62.33;41.67;;;;;4.90;70.28;101939.53;5079796;28;45329;-69
2023/01/26 06:58:02;;;;;;;;;57.67;42.00;;;;;4.68;70.42;101899.41;5078263;28;48360;-70
2023/01/26 07:00:27;;;;;;;;;62.33;45.67;;;;;4.74;71.10;101909.63;5079531;28;47451;-70
2023/01/26 07:02:53;;;;;;;;;59.25;43.50;;;;;4.69;70.18;101901.13;5063629;28;45505;-70
2023/01/26 07:05:18;;;;;;;;;56.67;43.67;;;;;4.78;70.09;101898.84;5056876;28;45403;-70
2023/01/26 07:07:44;;;;;;;;;56.00;44.33;;;;;4.94;69.80;101920.00;5057708;28;45447;-72
2023/01/26 07:10:10;;;;;;;;;63.67;42.67;;;;;4.55;69.95;101878.94;5057814;28;45351;-70
2023/01/26 07:12:44;;;;;;;;;56.50;44.50;;;;;4.72;69.69;101890.41;5055231;28;45475;-73
2023/01/26 07:15:11;;;;;;;;;61.33;45.67;;;;;4.94;69.97;101962.16;5075393;28;45574;-72
2023/01/26 07:17:39;;;;;;;;;63.00;48.00;;;;;4.80;69.83;101904.03;5075897;28;47941;-69
2023/01/26 07:20:05;;;;;;;;;66.33;47.33;;;;;5.01;70.01;101939.00;5077218;28;45265;-69
2023/01/26 07:22:31;;;;;;;;;56.75;42.50;;;;;4.77;70.17;101896.28;5077550;28;45542;-70
2023/01/26 07:24:56;;;;;;;;;63.67;46.33;;;;;5.03;69.97;101938.00;5077707;27;45334;-70
2023/01/26 07:27:21;;;;;;;;;59.00;45.25;;;;;4.75;69.56;101903.44;5075507;28;46276;-68
2023/01/26 07:29:47;;;;;;;;;62.00;50.00;;;;;4.23;70.41;101824.44;5038945;28;47664;-69
2023/01/26 07:32:12;;;;;;;;;60.25;43.00;;;;;4.85;70.23;101937.16;5057386;28;45339;-70
2023/01/26 07:34:40;;;;;;;;;54.67;46.00;;;;;4.61;70.72;101900.66;5057499;28;45515;-71
2023/01/26 07:37:05;;;;;;;;;53.67;41.67;;;;;4.84;70.59;101963.56;5058923;28;46416;-68
2023/01/26 07:39:31;;;;;;;;;69.50;48.75;;;;;4.88;70.83;101952.78;5057598;28;45273;-68
2023/01/26 07:41:56;;;;;;;;;62.75;42.50;;;;;3.98;71.41;101791.44;5057221;28;45288;-71
2023/01/26 07:44:22;;;;;;;;;57.50;46.25;;;;;5.02;70.84;101953.88;5040019;28;45531;-69
2023/01/26 07:46:47;;;;;;;;;69.00;45.75;;;;;5.08;70.31;101954.41;5056619;28;45672;-68
2023/01/26 07:49:12;;;;;;;;;58.67;40.00;;;;;4.64;70.61;101871.53;5039084;28;45447;-71
2023/01/26 07:51:38;;;;;;;;;54.33;42.33;;;;;4.08;70.44;101781.31;5039352;28;45285;-69
2023/01/26 07:54:04;;;;;;;;;57.67;45.00;;;;;5.05;70.61;101930.84;5039277;28;45521;-67
2023/01/26 07:56:30;;;;;;;;;53.33;41.67;;;;;5.12;70.39;101948.03;5056918;28;46753;-69
2023/01/26 07:58:55;;;;;;;;;59.00;44.50;;;;;5.02;70.27;101931.03;5039105;28;45952;-74
2023/01/26 08:01:21;;;;;;;;;51.33;41.67;;;;;4.99;69.98;101923.25;5058231;28;45451;-69
2023/01/26 08:03:49;;;;;;;;;55.33;43.67;;;;;5.27;70.11;101962.22;5041644;28;45693;-72
2023/01/26 08:06:16;;;;;;;;;55.67;44.67;;;;;4.20;70.15;101782.47;5056754;28;45549;-70
2023/01/26 08:08:41;;;;;;;;;55.33;45.33;;;;;5.19;70.74;101956.47;5056304;28;45581;-69
2023/01/26 08:11:09;;;;;;;;;59.67;45.00;;;;;5.16;69.83;101936.41;5058147;28;45228;-71
2023/01/26 08:13:34;;;;;;;;;60.00;44.67;;;;;5.39;69.53;101968.63;5042363;28;45553;-70
2023/01/26 08:16:08;;;;;;;;;60.33;43.00;;;;;5.32;69.18;101961.97;5060075;28;45625;-71
2023/01/26 08:18:33;;;;;;;;;64.25;47.25;;;;;5.39;69.90;101973.91;5041504;28;45431;-71
2023/01/26 08:20:59;;;;;;;;;57.67;43.33;;;;;3.85;69.35;101721.97;5060601;28;45202;-70
2023/01/26 08:23:24;;;;;;;;;65.00;48.50;;;;;5.27;69.96;101972.78;5059858;28;45241;-70
2023/01/26 08:25:50;;;;;;;;;63.00;48.00;;;;;5.32;69.37;101988.34;5059671;28;46417;-68
2023/01/26 08:28:15;;;;;;;;;62.00;41.33;;;;;5.27;69.53;101980.69;5059446;28;45273;-70
2023/01/26 08:30:40;;;;;;;;;60.33;45.00;;;;;5.26;69.18;101997.44;5059979;28;45447;-69
2023/01/26 08:33:06;;;;;;;;;64.00;47.67;;;;;5.25;69.94;101992.25;5055394;28;45473;-69
2023/01/26 08:35:32;;;;;;;;;60.25;47.25;;;;;4.92;70.46;101960.53;5041861;28;46978;-68
2023/01/26 08:37:58;;;;;;;;;66.25;53.75;;;;;4.56;70.08;101891.19;5021819;28;45421;-70
2023/01/26 08:40:23;;;;;;;;;70.25;51.50;;;;;4.83;70.48;101953.97;5050858;28;45451;-69
2023/01/26 08:42:50;;;;;;;;;70.75;52.00;;;;;5.03;69.85;101998.59;5039760;28;45474;-74
2023/01/26 08:45:15;;;;;;;;;70.33;49.33;;;;;4.52;70.13;101930.94;5055221;28;46156;-70
2023/01/26 08:47:41;;;;;;;;;67.50;48.50;;;;;3.87;70.14;101804.28;5053990;28;45502;-71
2023/01/26 08:50:07;;;;;;;;;71.50;49.50;;;;;4.75;69.42;101959.59;5058996;28;45275;-73
2023/01/26 08:52:33;;;;;;;;;60.75;47.25;;;;;5.05;70.12;101980.09;5030546;28;45260;-71
2023/01/26 08:54:59;;;;;;;;;70.00;51.00;;;;;5.06;70.11;102001.09;5038957;28;45704;-71
2023/01/26 08:57:25;;;;;;;;;65.50;50.50;;;;;5.07;70.34;102002.78;5039496;28;45487;-72
2023/01/26 08:59:50;;;;;;;;;61.50;44.75;;;;;4.71;70.50;101928.22;5043648;28;45475;-73
2023/01/26 09:02:16;;;;;;;;;65.25;51.50;;;;;4.75;69.47;101914.81;5039772;28;45539;-72
2023/01/26 09:04:41;;;;;;;;;59.25;45.25;;;;;5.37;69.21;102007.41;5058927;28;46684;-73
2023/01/26 09:07:06;;;;;;;;;62.25;47.75;;;;;5.47;69.05;102008.66;5060136;28;45471;-73
2023/01/26 09:09:32;;;;;;;;;64.00;46.75;;;;;4.50;68.44;101827.44;5049073;28;45394;-72
2023/01/26 09:11:57;;;;;;;;;68.67;49.00;;;;;5.61;68.53;102005.28;5041153;28;45330;-71
2023/01/26 09:14:22;;;;;;;;;68.67;49.67;;;;;5.64;69.21;102005.13;5040145;28;45805;-71
2023/01/26 09:16:48;;;;;;;;;64.75;47.00;;;;;5.21;68.73;101953.78;5057155;28;45328;-73
2023/01/26 09:19:14;;;;;;;;;61.00;48.00;;;;;5.53;68.45;102010.94;5058078;28;45312;-73
2023/01/26 09:21:39;;;;;;;;;68.25;49.50;;;;;5.07;69.10;101915.81;5040714;28;45262;-71
2023/01/26 09:24:05;;;;;;;;;63.00;45.50;;;;;4.80;68.87;101869.78;5058145;28;45413;-72
2023/01/26 09:26:30;;;;;;;;;59.67;46.67;;;;;5.69;68.62;102009.22;5042653;28;45485;-73
2023/01/26 09:28:56;;;;;;;;;65.50;46.25;;;;;5.67;68.52;102005.81;5053402;28;45320;-72
2023/01/26 09:31:22;;;;;;;;;57.00;47.00;;;;;5.69;68.81;102032.97;5059501;28;45396;-73
2023/01/26 09:33:49;;;;;;;;;58.67;45.33;;;;;3.90;68.65;101735.72;5072861;28;48063;-72
2023/01/26 09:36:15;;;;;;;;;65.67;48.67;;;;;5.74;68.65;102038.84;5063534;27;45336;-72
2023/01/26 09:38:40;;;;;;;;;45.00;37.33;;;;;5.36;68.14;102006.56;5062722;28;45430;-70
2023/01/26 09:41:14;;;;;;;;;53.33;40.67;;;;;5.55;69.25;102013.50;5079045;27;45450;-74
2023/01/26 09:43:44;;;;;;;;;53.00;41.67;;;;;5.24;68.77;101974.72;5068351;28;46158;-72
2023/01/26 09:46:22;;;;;;;;;50.67;38.00;;;;;5.67;69.20;102037.47;5078693;27;45371;-73
2023/01/26 09:49:06;;;;;;;;;57.33;44.33;;;;;5.67;68.98;102063.00;5078842;27;45297;-71
2023/01/26 09:51:38;;;;;;;;;59.67;43.67;;;;;5.56;69.35;102017.84;5073008;27;45537;-71
2023/01/26 09:54:42;;;;;;;;;61.67;43.00;;;;;5.63;69.03;102038.56;5069752;28;46657;-69
2023/01/26 09:57:16;;;;;;;;;60.67;45.33;;;;;5.19;69.56;101967.88;4995859;28;45673;-70
2023/01/26 09:59:59;;;;;;;;;53.33;43.33;;;;;5.63;69.78;102054.41;4995920;28;45636;-70
2023/01/26 10:02:33;;;;;;;;;54.67;42.33;;;;;5.35;69.74;102009.28;5035554;28;45536;-71
2023/01/26 10:05:07;;;;;;;;;53.67;42.67;;;;;5.22;70.74;102002.94;5058181;28;46107;-72
2023/01/26 10:07:32;;;;;;;;;57.00;39.00;;;;;4.28;70.71;101844.34;5057404;28;45379;-73
2023/01/26 10:09:58;;;;;;;;;51.00;39.33;;;;;4.54;70.74;101873.75;5060285;28;45520;-75
2023/01/26 10:12:30;;;;;;;;;50.33;41.00;;;;;5.61;71.24;102053.63;5063418;28;45225;-73
2023/01/26 10:15:28;;;;;;;;;57.00;45.00;;;;;5.63;70.97;102054.41;5061821;28;45580;-77
2023/01/26 10:17:55;;;;;;;;;59.25;46.25;;;;;5.10;70.17;101942.00;5063266;28;45272;-75
2023/01/26 10:20:31;;;;;;;;;51.67;42.33;;;;;5.61;69.50;102055.41;5068929;28;45516;-74
2023/01/26 10:23:05;;;;;;;;;59.50;46.25;;;;;5.58;70.36;102074.03;5073714;28;45490;-71
2023/01/26 10:25:37;;;;;;;;;48.33;37.33;;;;;5.45;71.25;102058.00;5073644;28;45505;-75
2023/01/26 10:28:35;;;;;;;;;55.00;43.00;;;;;5.48;71.26;102058.69;5057865;28;45493;-73
2023/01/26 10:31:04;;;;;;;;;46.67;37.00;;;;;5.01;71.12;101982.03;5064276;28;45362;-74
2023/01/26 10:33:32;;;;;;;;;54.33;44.33;;;;;5.43;71.46;102049.31;5062306;27;45624;-73
2023/01/26 10:35:59;;;;;;;;;59.00;42.67;;;;;5.15;71.11;102037.50;5077491;27;46372;-73
2023/01/26 10:38:36;;;;;;;;;56.67;43.33;;;;;5.39;72.04;102058.28;5068449;27;45527;-74
2023/01/26 10:41:24;;;;;;;;;56.75;47.50;;;;;5.46;71.70;102046.50;5058699;28;45412;-74
2023/01/26 10:44:01;;;;;;;;;62.75;47.00;;;;;4.91;71.38;101950.94;5062880;28;45500;-73
2023/01/26 10:46:36;;;;;;;;;66.00;48.67;;;;;4.87;70.54;101887.00;5067029;27;46017;-73
2023/01/26 10:49:23;;;;;;;;;73.00;53.50;;;;;5.73;70.67;102005.47;5056808;28;45502;-72
2023/01/26 10:52:18;;;;;;;;;55.33;41.00;;;;;6.13;70.46;102050.03;5058246;28;45470;-73
2023/01/26 10:54:45;;;;;;;;;60.00;43.50;;;;;5.41;68.78;101924.59;5054981;28;45447;-73
2023/01/26 10:57:28;;;;;;;;;58.33;42.67;;;;;5.99;69.89;102048.97;5055015;28;46451;-73
2023/01/26 11:00:07;;;;;;;;;65.00;46.75;;;;;6.00;69.94;102026.06;5057024;28;45278;-74
2023/01/26 11:02:35;;;;;;;;;57.00;43.33;;;;;5.95;69.70;102028.09;5074898;28;45392;-75
2023/01/26 11:05:06;;;;;;;;;56.67;44.00;;;;;5.11;69.54;101900.69;5073862;28;45473;-73
2023/01/26 11:07:34;;;;;;;;;53.00;40.67;;;;;4.97;69.94;101869.75;5075984;28;45757;-73
2023/01/26 11:10:38;;;;;;;;;47.33;41.33;;;;;6.06;69.86;102033.66;5072045;27;45371;-73
2023/01/26 11:13:18;;;;;;;;;50.33;39.00;;;;;6.09;69.26;102017.66;5056007;28;45528;-72
2023/01/26 11:15:47;;;;;;;;;52.00;38.33;;;;;6.13;69.99;102039.47;5057557;28;45455;-73
2023/01/26 11:18:21;;;;;;;;;54.67;45.33;;;;;6.19;69.82;102016.19;5056443;28;46230;-71
2023/01/26 11:20:58;;;;;;;;;55.00;41.67;;;;;6.29;69.91;102014.78;5056946;28;45430;-74
2023/01/26 11:23:45;;;;;;;;;57.00;42.33;;;;;6.39;69.91;102004.53;5057044;28;45584;-72
2023/01/26 11:26:32;;;;;;;;;56.67;40.33;;;;;6.54;69.26;102016.03;5057039;28;45702;-73
2023/01/26 11:29:06;;;;;;;;;49.67;40.00;;;;;6.54;69.54;102002.81;5040882;28;45955;-72
2023/01/26 11:31:50;;;;;;;;;48.33;37.67;;;;;6.56;68.64;102003.56;5026932;28;45915;-72
2023/01/26 11:34:16;;;;;;;;;53.00;43.33;;;;;6.53;68.16;102001.97;5057068;28;45486;-71
2023/01/26 11:37:18;;;;;;;;;61.25;47.75;;;;;5.37;68.66;101815.75;5028729;28;45549;-74
2023/01/26 11:39:52;;;;;;;;;53.00;41.33;;;;;6.56;68.28;102003.56;5036277;28;46719;-71
2023/01/26 11:42:23;;;;;;;;;49.33;39.33;;;;;6.44;68.91;101996.38;5037358;28;45486;-71
2023/01/26 11:45:21;;;;;;;;;47.00;38.67;;;;;6.42;68.91;102003.53;5038332;28;45605;-73
2023/01/26 11:48:14;;;;;;;;;49.67;36.67;;;;;6.29;69.29;101993.63;5023507;28;45511;-74
2023/01/26 11:50:55;;;;;;;;;48.00;37.33;;;;;6.35;68.69;102001.22;5042474;28;46714;-75
2023/01/26 11:53:26;;;;;;;;;35.33;32.33;;;;;6.34;68.37;101999.50;5042460;28;45470;-70
2023/01/26 11:56:19;;;;;;;;;52.00;39.00;;;;;6.25;69.01;102002.69;5060077;28;45242;-72
2023/01/26 11:58:54;;;;;;;;;48.33;39.67;;;;;5.97;69.82;101986.63;5047148;28;45508;-76
2023/01/26 12:01:27;;;;;;;;;40.67;36.00;;;;;6.03;70.00;101994.25;5029974;28;47065;-72
2023/01/26 12:03:54;;;;;;;;;56.67;46.00;;;;;6.03;70.22;102007.44;5062723;28;45369;-75
2023/01/26 12:06:43;;;;;;;;;52.67;41.33;;;;;6.04;70.20;101995.94;5061113;28;45321;-71